sensor_id;sensor_type;location;lat;lon;timestamp;pressure;altitude;pressure_sealevel;temperature;humidity
55373;BME280;41249;47.838;16.490;2022-08-23T00:01:21;98854.50;;;12.19;100.00
55373;BME280;41249;47.838;16.490;2022-08-23T00:03:51;98847.25;;;12.06;100.00
55373;BME280;41249;47.838;16.490;2022-08-23T00:06:18;98853.09;;;12.23;100.00
55373;BME280;41249;47.838;16.490;2022-08-23T00:08:48;98852.22;;;12.09;100.00
55373;BME280;41249;47.838;16.490;2022-08-23T00:11:40;98863.69;;;12.10;100.00
55373;BME280;41249;47.838;16.490;2022-08-23T00:14:14;98858.53;;;12.08;100.00
55373;BME280;41249;47.838;16.490;2022-08-23T00:16:42;98862.09;;;11.88;100.00
55373;BME280;41249;47.838;16.490;2022-08-23T00:19:11;98862.63;;;12.04;100.00
55373;BME280;41249;47.838;16.490;2022-08-23T00:21:39;98868.09;;;11.96;100.00
55373;BME280;41249;47.838;16.490;2022-08-23T00:24:07;98863.13;;;11.93;100.00
55373;BME280;41249;47.838;16.490;2022-08-23T00:29:16;98867.75;;;11.78;100.00
55373;BME280;41249;47.838;16.490;2022-08-23T00:31:44;98876.69;;;11.70;100.00
55373;BME280;41249;47.838;16.490;2022-08-23T00:34:11;98853.91;;;11.89;100.00
55373;BME280;41249;47.838;16.490;2022-08-23T00:36:39;98853.50;;;11.92;100.00
55373;BME280;41249;47.838;16.490;2022-08-23T00:39:06;98844.91;;;11.90;100.00
55373;BME280;41249;47.838;16.490;2022-08-23T00:41:33;98851.25;;;11.89;100.00
55373;BME280;41249;47.838;16.490;2022-08-23T00:44:02;98835.03;;;11.84;100.00
55373;BME280;41249;47.838;16.490;2022-08-23T00:46:53;98845.66;;;11.84;100.00
55373;BME280;41249;47.838;16.490;2022-08-23T00:49:42;98849.25;;;11.98;100.00
55373;BME280;41249;47.838;16.490;2022-08-23T00:52:17;98840.28;;;12.05;100.00
55373;BME280;41249;47.838;16.490;2022-08-23T00:54:49;98853.59;;;11.77;100.00
55373;BME280;41249;47.838;16.490;2022-08-23T00:57:18;98843.72;;;11.99;100.00
55373;BME280;41249;47.838;16.490;2022-08-23T00:59:46;98860.53;;;12.00;100.00
55373;BME280;41249;47.838;16.490;2022-08-23T01:02:14;98843.09;;;11.97;100.00
55373;BME280;41249;47.838;16.490;2022-08-23T01:04:44;98848.19;;;11.92;100.00
55373;BME280;41249;47.838;16.490;2022-08-23T01:07:25;98857.66;;;12.01;100.00
55373;BME280;41249;47.838;16.490;2022-08-23T01:09:58;98850.28;;;11.97;100.00
55373;BME280;41249;47.838;16.490;2022-08-23T01:12:38;98849.09;;;12.06;100.00
55373;BME280;41249;47.838;16.490;2022-08-23T01:15:18;98851.59;;;12.14;100.00
55373;BME280;41249;47.838;16.490;2022-08-23T01:17:50;98853.59;;;12.05;100.00
55373;BME280;41249;47.838;16.490;2022-08-23T01:20:22;98856.69;;;12.09;100.00
55373;BME280;41249;47.838;16.490;2022-08-23T01:25:41;98854.81;;;12.03;100.00
55373;BME280;41249;47.838;16.490;2022-08-23T01:28:07;98843.72;;;11.99;100.00
55373;BME280;41249;47.838;16.490;2022-08-23T01:30:34;98854.31;;;11.93;100.00
55373;BME280;41249;47.838;16.490;2022-08-23T01:33:05;98855.97;;;11.94;100.00
55373;BME280;41249;47.838;16.490;2022-08-23T01:35:36;98857.13;;;11.85;100.00
55373;BME280;41249;47.838;16.490;2022-08-23T01:38:05;98859.13;;;11.76;100.00
55373;BME280;41249;47.838;16.490;2022-08-23T01:40:34;98860.44;;;11.65;100.00
55373;BME280;41249;47.838;16.490;2022-08-23T01:43:02;98874.56;;;11.66;100.00
55373;BME280;41249;47.838;16.490;2022-08-23T01:45:29;98860.56;;;11.57;100.00
55373;BME280;41249;47.838;16.490;2022-08-23T01:47:57;98852.59;;;11.57;100.00
55373;BME280;41249;47.838;16.490;2022-08-23T01:50:25;98857.91;;;11.78;100.00
55373;BME280;41249;47.838;16.490;2022-08-23T01:52:53;98860.41;;;11.87;100.00
55373;BME280;41249;47.838;16.490;2022-08-23T01:55:20;98852.69;;;11.92;100.00
55373;BME280;41249;47.838;16.490;2022-08-23T01:57:52;98856.84;;;12.01;100.00
55373;BME280;41249;47.838;16.490;2022-08-23T02:00:24;98862.56;;;11.98;100.00
55373;BME280;41249;47.838;16.490;2022-08-23T02:02:51;98864.66;;;12.02;100.00
55373;BME280;41249;47.838;16.490;2022-08-23T02:05:18;98857.56;;;12.16;100.00
55373;BME280;41249;47.838;16.490;2022-08-23T02:07:46;98870.09;;;11.94;100.00
55373;BME280;41249;47.838;16.490;2022-08-23T02:10:16;98861.75;;;11.97;100.00
55373;BME280;41249;47.838;16.490;2022-08-23T02:12:43;98865.47;;;12.03;100.00
55373;BME280;41249;47.838;16.490;2022-08-23T02:15:14;98857.94;;;12.13;100.00
55373;BME280;41249;47.838;16.490;2022-08-23T02:17:42;98860.63;;;12.13;100.00
55373;BME280;41249;47.838;16.490;2022-08-23T02:20:10;98876.19;;;12.09;100.00
55373;BME280;41249;47.838;16.490;2022-08-23T02:22:37;98864.53;;;12.17;100.00
55373;BME280;41249;47.838;16.490;2022-08-23T02:25:05;98865.13;;;12.13;100.00
55373;BME280;41249;47.838;16.490;2022-08-23T02:27:33;98866.56;;;12.15;100.00
55373;BME280;41249;47.838;16.490;2022-08-23T02:29:59;98871.28;;;12.13;100.00
55373;BME280;41249;47.838;16.490;2022-08-23T02:32:28;98883.75;;;11.85;100.00
55373;BME280;41249;47.838;16.490;2022-08-23T02:34:56;98880.53;;;11.68;100.00
55373;BME280;41249;47.838;16.490;2022-08-23T02:37:33;98889.16;;;11.91;100.00
55373;BME280;41249;47.838;16.490;2022-08-23T02:40:02;98876.41;;;11.87;100.00
55373;BME280;41249;47.838;16.490;2022-08-23T02:42:29;98877.41;;;11.86;100.00
55373;BME280;41249;47.838;16.490;2022-08-23T02:44:57;98899.78;;;11.91;100.00
55373;BME280;41249;47.838;16.490;2022-08-23T02:47:25;98882.06;;;11.77;100.00
55373;BME280;41249;47.838;16.490;2022-08-23T02:50:06;98884.91;;;11.54;100.00
55373;BME280;41249;47.838;16.490;2022-08-23T02:52:34;98889.03;;;11.78;100.00
55373;BME280;41249;47.838;16.490;2022-08-23T02:55:01;98890.81;;;11.71;100.00
55373;BME280;41249;47.838;16.490;2022-08-23T02:57:28;98896.06;;;11.86;100.00
55373;BME280;41249;47.838;16.490;2022-08-23T02:59:59;98904.69;;;11.88;100.00
55373;BME280;41249;47.838;16.490;2022-08-23T03:02:26;98911.41;;;11.62;100.00
55373;BME280;41249;47.838;16.490;2022-08-23T03:04:53;98876.19;;;11.81;100.00
55373;BME280;41249;47.838;16.490;2022-08-23T03:07:20;98884.16;;;11.81;100.00
55373;BME280;41249;47.838;16.490;2022-08-23T03:09:46;98892.75;;;11.62;100.00
55373;BME280;41249;47.838;16.490;2022-08-23T03:12:13;98887.03;;;11.65;100.00
55373;BME280;41249;47.838;16.490;2022-08-23T03:14:46;98878.06;;;11.66;100.00
55373;BME280;41249;47.838;16.490;2022-08-23T03:17:13;98884.16;;;11.60;100.00
55373;BME280;41249;47.838;16.490;2022-08-23T03:19:40;98883.56;;;11.65;100.00
55373;BME280;41249;47.838;16.490;2022-08-23T03:22:07;98879.59;;;11.75;100.00
55373;BME280;41249;47.838;16.490;2022-08-23T03:24:33;98887.69;;;11.67;100.00
55373;BME280;41249;47.838;16.490;2022-08-23T03:27:03;98886.06;;;11.66;100.00
55373;BME280;41249;47.838;16.490;2022-08-23T03:29:31;98885.50;;;11.71;100.00
55373;BME280;41249;47.838;16.490;2022-08-23T03:32:00;98886.13;;;11.73;100.00
55373;BME280;41249;47.838;16.490;2022-08-23T03:34:30;98888.78;;;11.73;100.00
55373;BME280;41249;47.838;16.490;2022-08-23T03:36:57;98893.53;;;11.56;100.00
55373;BME280;41249;47.838;16.490;2022-08-23T03:39:25;98889.03;;;11.57;100.00
55373;BME280;41249;47.838;16.490;2022-08-23T03:41:53;98894.94;;;11.52;100.00
55373;BME280;41249;47.838;16.490;2022-08-23T03:44:20;98903.59;;;11.61;100.00
55373;BME280;41249;47.838;16.490;2022-08-23T03:46:47;98901.91;;;11.74;100.00
55373;BME280;41249;47.838;16.490;2022-08-23T03:49:13;98909.91;;;11.74;100.00
55373;BME280;41249;47.838;16.490;2022-08-23T03:51:45;98907.03;;;11.76;100.00
55373;BME280;41249;47.838;16.490;2022-08-23T03:54:12;98913.03;;;11.63;100.00
55373;BME280;41249;47.838;16.490;2022-08-23T03:59:18;98898.59;;;11.51;100.00
55373;BME280;41249;47.838;16.490;2022-08-23T04:01:45;98903.34;;;11.55;100.00
55373;BME280;41249;47.838;16.490;2022-08-23T04:04:12;98899.59;;;11.50;100.00
55373;BME280;41249;47.838;16.490;2022-08-23T04:06:51;98908.53;;;11.64;100.00
55373;BME280;41249;47.838;16.490;2022-08-23T04:09:18;98917.13;;;11.59;100.00
55373;BME280;41249;47.838;16.490;2022-08-23T04:11:46;98895.69;;;11.46;100.00
55373;BME280;41249;47.838;16.490;2022-08-23T04:14:14;98905.38;;;11.53;100.00
55373;BME280;41249;47.838;16.490;2022-08-23T04:16:41;98886.63;;;11.62;100.00
55373;BME280;41249;47.838;16.490;2022-08-23T04:19:11;98889.22;;;11.76;100.00
55373;BME280;41249;47.838;16.490;2022-08-23T04:21:50;98893.28;;;11.72;100.00
55373;BME280;41249;47.838;16.490;2022-08-23T04:24:18;98901.50;;;11.56;100.00
55373;BME280;41249;47.838;16.490;2022-08-23T04:26:45;98903.81;;;11.59;100.00
55373;BME280;41249;47.838;16.490;2022-08-23T04:29:15;98916.47;;;11.78;100.00
55373;BME280;41249;47.838;16.490;2022-08-23T04:32:02;98922.47;;;11.80;100.00
55373;BME280;41249;47.838;16.490;2022-08-23T04:34:34;98921.28;;;11.90;100.00
55373;BME280;41249;47.838;16.490;2022-08-23T04:37:01;98928.22;;;11.84;100.00
55373;BME280;41249;47.838;16.490;2022-08-23T04:39:28;98930.25;;;11.82;100.00
55373;BME280;41249;47.838;16.490;2022-08-23T04:41:56;98923.81;;;11.98;100.00
55373;BME280;41249;47.838;16.490;2022-08-23T04:44:42;98938.00;;;12.05;100.00
55373;BME280;41249;47.838;16.490;2022-08-23T04:47:09;98935.19;;;12.13;100.00
55373;BME280;41249;47.838;16.490;2022-08-23T04:49:36;98941.16;;;12.15;100.00
55373;BME280;41249;47.838;16.490;2022-08-23T04:52:03;98952.72;;;12.01;100.00
55373;BME280;41249;47.838;16.490;2022-08-23T04:54:30;98944.22;;;12.12;100.00
55373;BME280;41249;47.838;16.490;2022-08-23T04:57:16;98956.78;;;11.97;100.00
55373;BME280;41249;47.838;16.490;2022-08-23T04:59:44;98941.88;;;12.30;100.00
55373;BME280;41249;47.838;16.490;2022-08-23T05:02:10;98960.09;;;12.27;100.00
55373;BME280;41249;47.838;16.490;2022-08-23T05:04:38;98959.47;;;12.25;100.00
55373;BME280;41249;47.838;16.490;2022-08-23T05:07:04;98967.13;;;12.34;100.00
55373;BME280;41249;47.838;16.490;2022-08-23T05:09:32;98958.69;;;12.31;100.00
55373;BME280;41249;47.838;16.490;2022-08-23T05:11:59;98964.66;;;12.33;100.00
55373;BME280;41249;47.838;16.490;2022-08-23T05:14:27;98965.75;;;12.45;100.00
55373;BME280;41249;47.838;16.490;2022-08-23T05:16:54;98963.44;;;12.70;100.00
55373;BME280;41249;47.838;16.490;2022-08-23T05:19:21;98966.84;;;12.57;100.00
55373;BME280;41249;47.838;16.490;2022-08-23T05:21:49;98962.59;;;12.63;100.00
55373;BME280;41249;47.838;16.490;2022-08-23T05:24:24;98969.06;;;12.75;100.00
55373;BME280;41249;47.838;16.490;2022-08-23T05:26:51;98979.53;;;12.77;100.00
55373;BME280;41249;47.838;16.490;2022-08-23T05:29:17;98979.56;;;12.83;100.00
55373;BME280;41249;47.838;16.490;2022-08-23T05:31:49;98982.41;;;12.75;100.00
55373;BME280;41249;47.838;16.490;2022-08-23T05:34:18;98989.44;;;12.89;100.00
55373;BME280;41249;47.838;16.490;2022-08-23T05:36:54;98997.59;;;12.81;100.00
55373;BME280;41249;47.838;16.490;2022-08-23T05:39:35;99002.84;;;13.09;100.00
55373;BME280;41249;47.838;16.490;2022-08-23T05:42:06;99002.22;;;13.01;100.00
55373;BME280;41249;47.838;16.490;2022-08-23T05:44:34;99005.69;;;13.42;100.00
55373;BME280;41249;47.838;16.490;2022-08-23T05:47:05;99004.78;;;13.22;100.00
55373;BME280;41249;47.838;16.490;2022-08-23T05:49:47;99012.25;;;13.46;100.00
55373;BME280;41249;47.838;16.490;2022-08-23T05:52:14;99016.47;;;13.69;100.00
55373;BME280;41249;47.838;16.490;2022-08-23T05:54:42;99018.00;;;13.43;100.00
55373;BME280;41249;47.838;16.490;2022-08-23T05:57:36;99027.88;;;13.50;100.00
55373;BME280;41249;47.838;16.490;2022-08-23T06:00:06;99027.44;;;13.46;100.00
55373;BME280;41249;47.838;16.490;2022-08-23T06:02:44;99028.44;;;13.38;100.00
55373;BME280;41249;47.838;16.490;2022-08-23T06:05:12;99027.41;;;13.39;100.00
55373;BME280;41249;47.838;16.490;2022-08-23T06:07:40;99036.38;;;13.18;100.00
55373;BME280;41249;47.838;16.490;2022-08-23T06:10:08;99034.97;;;13.29;100.00
55373;BME280;41249;47.838;16.490;2022-08-23T06:12:45;99038.09;;;13.33;100.00
55373;BME280;41249;47.838;16.490;2022-08-23T06:15:12;99042.97;;;13.29;100.00
55373;BME280;41249;47.838;16.490;2022-08-23T06:17:39;99047.97;;;13.45;100.00
55373;BME280;41249;47.838;16.490;2022-08-23T06:20:07;99044.19;;;13.74;100.00
55373;BME280;41249;47.838;16.490;2022-08-23T06:22:54;99040.38;;;14.10;100.00
55373;BME280;41249;47.838;16.490;2022-08-23T06:25:21;99038.22;;;13.66;100.00
55373;BME280;41249;47.838;16.490;2022-08-23T06:28:06;99041.78;;;13.86;100.00
55373;BME280;41249;47.838;16.490;2022-08-23T06:30:37;99040.13;;;13.85;100.00
55373;BME280;41249;47.838;16.490;2022-08-23T06:33:43;99043.22;;;13.95;100.00
55373;BME280;41249;47.838;16.490;2022-08-23T06:36:29;99050.56;;;13.73;100.00
55373;BME280;41249;47.838;16.490;2022-08-23T06:39:27;99041.56;;;13.88;100.00
55373;BME280;41249;47.838;16.490;2022-08-23T06:42:06;99042.38;;;13.82;100.00
55373;BME280;41249;47.838;16.490;2022-08-23T06:44:59;99047.72;;;13.82;100.00
55373;BME280;41249;47.838;16.490;2022-08-23T06:47:46;99038.94;;;14.14;100.00
55373;BME280;41249;47.838;16.490;2022-08-23T06:50:13;99032.97;;;13.99;100.00
55373;BME280;41249;47.838;16.490;2022-08-23T06:52:58;99040.75;;;13.87;100.00
55373;BME280;41249;47.838;16.490;2022-08-23T06:55:40;99038.25;;;13.79;100.00
55373;BME280;41249;47.838;16.490;2022-08-23T06:58:22;99046.13;;;14.00;100.00
55373;BME280;41249;47.838;16.490;2022-08-23T07:01:14;99048.75;;;13.87;100.00
55373;BME280;41249;47.838;16.490;2022-08-23T07:04:16;99046.53;;;14.17;100.00
55373;BME280;41249;47.838;16.490;2022-08-23T07:07:01;99043.69;;;14.32;100.00
55373;BME280;41249;47.838;16.490;2022-08-23T07:09:30;99048.81;;;14.53;100.00
55373;BME280;41249;47.838;16.490;2022-08-23T07:11:59;99044.09;;;14.36;100.00
55373;BME280;41249;47.838;16.490;2022-08-23T07:14:26;99057.66;;;14.54;100.00
55373;BME280;41249;47.838;16.490;2022-08-23T07:16:57;99055.81;;;14.35;100.00
55373;BME280;41249;47.838;16.490;2022-08-23T07:19:27;99053.53;;;14.25;100.00
55373;BME280;41249;47.838;16.490;2022-08-23T07:21:56;99058.47;;;14.54;100.00
55373;BME280;41249;47.838;16.490;2022-08-23T07:24:24;99064.06;;;14.60;100.00
55373;BME280;41249;47.838;16.490;2022-08-23T07:26:59;99064.47;;;14.70;100.00
55373;BME280;41249;47.838;16.490;2022-08-23T07:29:27;99056.25;;;14.85;100.00
55373;BME280;41249;47.838;16.490;2022-08-23T07:31:55;99061.78;;;14.90;100.00
55373;BME280;41249;47.838;16.490;2022-08-23T07:34:24;99070.00;;;14.88;100.00
55373;BME280;41249;47.838;16.490;2022-08-23T07:36:52;99071.28;;;14.79;100.00
55373;BME280;41249;47.838;16.490;2022-08-23T07:39:21;99064.22;;;15.04;100.00
55373;BME280;41249;47.838;16.490;2022-08-23T07:41:50;99061.75;;;14.96;100.00
55373;BME280;41249;47.838;16.490;2022-08-23T07:44:19;99063.16;;;15.19;100.00
55373;BME280;41249;47.838;16.490;2022-08-23T07:46:53;99063.41;;;15.04;100.00
55373;BME280;41249;47.838;16.490;2022-08-23T07:49:21;99058.03;;;15.10;100.00
55373;BME280;41249;47.838;16.490;2022-08-23T07:51:56;99048.00;;;14.86;100.00
55373;BME280;41249;47.838;16.490;2022-08-23T07:54:25;99049.22;;;14.97;100.00
55373;BME280;41249;47.838;16.490;2022-08-23T07:57:22;99049.75;;;15.25;100.00
55373;BME280;41249;47.838;16.490;2022-08-23T08:00:08;99043.22;;;15.08;100.00
55373;BME280;41249;47.838;16.490;2022-08-23T08:02:40;99048.94;;;15.18;100.00
55373;BME280;41249;47.838;16.490;2022-08-23T08:05:15;99059.16;;;15.41;100.00
55373;BME280;41249;47.838;16.490;2022-08-23T08:07:48;99060.78;;;15.55;100.00
55373;BME280;41249;47.838;16.490;2022-08-23T08:10:15;99065.34;;;15.48;100.00
55373;BME280;41249;47.838;16.490;2022-08-23T08:12:42;99070.91;;;15.53;100.00
55373;BME280;41249;47.838;16.490;2022-08-23T08:15:19;99076.84;;;15.55;100.00
55373;BME280;41249;47.838;16.490;2022-08-23T08:17:53;99078.16;;;15.20;100.00
55373;BME280;41249;47.838;16.490;2022-08-23T08:20:20;99086.47;;;15.70;100.00
55373;BME280;41249;47.838;16.490;2022-08-23T08:23:00;99088.84;;;15.33;100.00
55373;BME280;41249;47.838;16.490;2022-08-23T08:25:37;99093.81;;;15.36;100.00
55373;BME280;41249;47.838;16.490;2022-08-23T08:28:06;99100.97;;;15.42;100.00
55373;BME280;41249;47.838;16.490;2022-08-23T08:30:41;99114.81;;;15.32;100.00
55373;BME280;41249;47.838;16.490;2022-08-23T08:33:08;99118.53;;;15.31;100.00
55373;BME280;41249;47.838;16.490;2022-08-23T08:35:35;99118.53;;;15.45;100.00
55373;BME280;41249;47.838;16.490;2022-08-23T08:38:02;99122.47;;;15.22;100.00
55373;BME280;41249;47.838;16.490;2022-08-23T08:40:33;99113.97;;;15.52;100.00
55373;BME280;41249;47.838;16.490;2022-08-23T08:46:15;99125.41;;;15.79;100.00
55373;BME280;41249;47.838;16.490;2022-08-23T08:48:50;99114.94;;;16.09;100.00
55373;BME280;41249;47.838;16.490;2022-08-23T08:54:12;99122.22;;;15.95;100.00
55373;BME280;41249;47.838;16.490;2022-08-23T08:56:48;99119.34;;;16.35;100.00
55373;BME280;41249;47.838;16.490;2022-08-23T09:02:22;99137.22;;;16.09;100.00
55373;BME280;41249;47.838;16.490;2022-08-23T09:05:08;99142.38;;;16.04;100.00
55373;BME280;41249;47.838;16.490;2022-08-23T09:07:45;99131.72;;;15.91;100.00
55373;BME280;41249;47.838;16.490;2022-08-23T09:10:43;99129.69;;;16.25;100.00
55373;BME280;41249;47.838;16.490;2022-08-23T09:16:21;99121.47;;;16.19;100.00
55373;BME280;41249;47.838;16.490;2022-08-23T09:18:51;99135.22;;;16.36;100.00
55373;BME280;41249;47.838;16.490;2022-08-23T09:21:23;99133.47;;;16.17;100.00
55373;BME280;41249;47.838;16.490;2022-08-23T09:23:54;99145.16;;;16.29;100.00
55373;BME280;41249;47.838;16.490;2022-08-23T09:26:41;99134.25;;;16.31;100.00
55373;BME280;41249;47.838;16.490;2022-08-23T09:29:27;99150.94;;;16.26;100.00
55373;BME280;41249;47.838;16.490;2022-08-23T09:32:04;99153.16;;;16.36;100.00
55373;BME280;41249;47.838;16.490;2022-08-23T09:37:21;99141.25;;;16.32;100.00
55373;BME280;41249;47.838;16.490;2022-08-23T09:40:13;99146.78;;;16.37;100.00
55373;BME280;41249;47.838;16.490;2022-08-23T09:42:43;99150.06;;;16.39;100.00
55373;BME280;41249;47.838;16.490;2022-08-23T09:45:28;99161.69;;;16.19;100.00
55373;BME280;41249;47.838;16.490;2022-08-23T09:48:05;99158.88;;;16.08;100.00
55373;BME280;41249;47.838;16.490;2022-08-23T09:50:50;99162.22;;;16.41;100.00
55373;BME280;41249;47.838;16.490;2022-08-23T09:53:24;99164.63;;;16.50;100.00
55373;BME280;41249;47.838;16.490;2022-08-23T09:55:56;99176.94;;;15.74;100.00
55373;BME280;41249;47.838;16.490;2022-08-23T09:58:36;99171.81;;;16.17;100.00
55373;BME280;41249;47.838;16.490;2022-08-23T10:01:10;99172.66;;;16.11;100.00
55373;BME280;41249;47.838;16.490;2022-08-23T10:03:43;99180.22;;;15.76;100.00
55373;BME280;41249;47.838;16.490;2022-08-23T10:06:29;99173.59;;;15.85;100.00
55373;BME280;41249;47.838;16.490;2022-08-23T10:09:01;99187.06;;;15.65;100.00
55373;BME280;41249;47.838;16.490;2022-08-23T10:11:44;99185.00;;;15.61;100.00
55373;BME280;41249;47.838;16.490;2022-08-23T10:14:17;99190.34;;;15.68;100.00
55373;BME280;41249;47.838;16.490;2022-08-23T10:19:47;99196.16;;;15.38;100.00
55373;BME280;41249;47.838;16.490;2022-08-23T10:22:21;99189.16;;;16.15;100.00
55373;BME280;41249;47.838;16.490;2022-08-23T10:27:47;99189.88;;;15.84;100.00
55373;BME280;41249;47.838;16.490;2022-08-23T10:30:44;99202.06;;;15.80;100.00
55373;BME280;41249;47.838;16.490;2022-08-23T10:33:29;99189.25;;;15.95;100.00
55373;BME280;41249;47.838;16.490;2022-08-23T10:36:22;99191.97;;;16.27;100.00
55373;BME280;41249;47.838;16.490;2022-08-23T10:39:01;99191.97;;;16.33;100.00
55373;BME280;41249;47.838;16.490;2022-08-23T10:47:27;99190.88;;;16.72;100.00
55373;BME280;41249;47.838;16.490;2022-08-23T10:50:04;99201.16;;;17.07;100.00
55373;BME280;41249;47.838;16.490;2022-08-23T10:52:42;99189.34;;;17.15;100.00
55373;BME280;41249;47.838;16.490;2022-08-23T10:55:17;99184.66;;;17.10;100.00
55373;BME280;41249;47.838;16.490;2022-08-23T10:58:04;99174.75;;;17.11;100.00
55373;BME280;41249;47.838;16.490;2022-08-23T11:00:33;99182.16;;;17.09;100.00
55373;BME280;41249;47.838;16.490;2022-08-23T11:03:16;99176.53;;;17.17;100.00
55373;BME280;41249;47.838;16.490;2022-08-23T11:17:00;99180.94;;;17.11;100.00
55373;BME280;41249;47.838;16.490;2022-08-23T11:22:25;99179.00;;;17.18;100.00
55373;BME280;41249;47.838;16.490;2022-08-23T11:27:42;99169.66;;;17.46;100.00
55373;BME280;41249;47.838;16.490;2022-08-23T11:33:17;99161.72;;;17.51;100.00
55373;BME280;41249;47.838;16.490;2022-08-23T11:35:53;99171.59;;;17.75;100.00
55373;BME280;41249;47.838;16.490;2022-08-23T11:41:27;99162.50;;;18.55;100.00
55373;BME280;41249;47.838;16.490;2022-08-23T11:52:26;99159.34;;;19.58;98.32
55373;BME280;41249;47.838;16.490;2022-08-23T12:03:01;99182.75;;;18.27;100.00
55373;BME280;41249;47.838;16.490;2022-08-23T12:21:32;99169.25;;;18.76;100.00
55373;BME280;41249;47.838;16.490;2022-08-23T12:24:13;99174.19;;;18.49;100.00
55373;BME280;41249;47.838;16.490;2022-08-23T12:31:59;99176.28;;;18.88;100.00
55373;BME280;41249;47.838;16.490;2022-08-23T12:34:49;99158.84;;;18.79;100.00
55373;BME280;41249;47.838;16.490;2022-08-23T12:37:30;99163.47;;;18.60;98.75
55373;BME280;41249;47.838;16.490;2022-08-23T12:40:03;99174.13;;;18.67;100.00
55373;BME280;41249;47.838;16.490;2022-08-23T12:42:36;99161.19;;;18.16;100.00
55373;BME280;41249;47.838;16.490;2022-08-23T12:45:17;99168.91;;;18.12;100.00
55373;BME280;41249;47.838;16.490;2022-08-23T12:48:00;99158.03;;;18.49;100.00
55373;BME280;41249;47.838;16.490;2022-08-23T12:50:37;99167.06;;;18.54;100.00
55373;BME280;41249;47.838;16.490;2022-08-23T12:53:07;99168.41;;;18.75;100.00
55373;BME280;41249;47.838;16.490;2022-08-23T12:55:46;99163.50;;;18.42;100.00
55373;BME280;41249;47.838;16.490;2022-08-23T12:58:16;99169.00;;;18.65;100.00
55373;BME280;41249;47.838;16.490;2022-08-23T13:00:57;99168.69;;;18.85;100.00
55373;BME280;41249;47.838;16.490;2022-08-23T13:03:39;99163.41;;;18.79;100.00
55373;BME280;41249;47.838;16.490;2022-08-23T13:06:15;99162.41;;;19.27;100.00
55373;BME280;41249;47.838;16.490;2022-08-23T13:08:49;99158.13;;;18.72;100.00
55373;BME280;41249;47.838;16.490;2022-08-23T13:11:20;99167.34;;;18.64;100.00
55373;BME280;41249;47.838;16.490;2022-08-23T13:13:48;99158.22;;;18.35;100.00
55373;BME280;41249;47.838;16.490;2022-08-23T13:16:41;99148.66;;;18.93;100.00
55373;BME280;41249;47.838;16.490;2022-08-23T13:19:29;99163.38;;;18.37;100.00
55373;BME280;41249;47.838;16.490;2022-08-23T13:22:22;99171.72;;;18.47;100.00
55373;BME280;41249;47.838;16.490;2022-08-23T13:25:06;99154.66;;;18.23;100.00
55373;BME280;41249;47.838;16.490;2022-08-23T13:27:56;99154.63;;;18.53;100.00
55373;BME280;41249;47.838;16.490;2022-08-23T13:30:25;99159.63;;;18.38;100.00
55373;BME280;41249;47.838;16.490;2022-08-23T13:46:18;99147.00;;;18.08;100.00
55373;BME280;41249;47.838;16.490;2022-08-23T13:48:59;99154.41;;;17.58;100.00
55373;BME280;41249;47.838;16.490;2022-08-23T13:51:39;99169.56;;;17.52;100.00
55373;BME280;41249;47.838;16.490;2022-08-23T13:54:14;99161.44;;;17.96;100.00
55373;BME280;41249;47.838;16.490;2022-08-23T13:56:46;99166.22;;;18.12;100.00
55373;BME280;41249;47.838;16.490;2022-08-23T13:59:26;99166.66;;;17.72;100.00
55373;BME280;41249;47.838;16.490;2022-08-23T14:02:00;99176.75;;;17.15;100.00
55373;BME280;41249;47.838;16.490;2022-08-23T14:04:28;99170.25;;;17.48;100.00
55373;BME280;41249;47.838;16.490;2022-08-23T14:06:55;99168.72;;;17.34;100.00
55373;BME280;41249;47.838;16.490;2022-08-23T14:09:21;99163.84;;;18.04;100.00
55373;BME280;41249;47.838;16.490;2022-08-23T14:11:58;99160.38;;;17.78;100.00
55373;BME280;41249;47.838;16.490;2022-08-23T14:14:28;99162.63;;;18.18;100.00
55373;BME280;41249;47.838;16.490;2022-08-23T14:16:57;99158.66;;;17.66;100.00
55373;BME280;41249;47.838;16.490;2022-08-23T14:19:29;99169.81;;;18.06;100.00
55373;BME280;41249;47.838;16.490;2022-08-23T14:22:17;99168.25;;;17.98;100.00
55373;BME280;41249;47.838;16.490;2022-08-23T14:24:44;99171.16;;;17.60;100.00
55373;BME280;41249;47.838;16.490;2022-08-23T14:27:11;99163.13;;;18.08;100.00
55373;BME280;41249;47.838;16.490;2022-08-23T14:29:38;99164.25;;;18.19;100.00
55373;BME280;41249;47.838;16.490;2022-08-23T14:32:05;99168.91;;;18.42;100.00
55373;BME280;41249;47.838;16.490;2022-08-23T14:34:31;99180.84;;;17.79;100.00
55373;BME280;41249;47.838;16.490;2022-08-23T14:36:59;99179.41;;;17.58;100.00
55373;BME280;41249;47.838;16.490;2022-08-23T14:39:45;99190.19;;;17.95;100.00
55373;BME280;41249;47.838;16.490;2022-08-23T14:42:14;99187.38;;;17.90;100.00
55373;BME280;41249;47.838;16.490;2022-08-23T14:44:43;99202.34;;;17.79;100.00
55373;BME280;41249;47.838;16.490;2022-08-23T14:47:10;99192.38;;;17.87;100.00
55373;BME280;41249;47.838;16.490;2022-08-23T14:49:37;99196.94;;;18.04;100.00
55373;BME280;41249;47.838;16.490;2022-08-23T14:52:04;99199.63;;;18.04;100.00
55373;BME280;41249;47.838;16.490;2022-08-23T14:54:31;99213.06;;;17.43;100.00
55373;BME280;41249;47.838;16.490;2022-08-23T14:56:59;99202.03;;;17.51;100.00
55373;BME280;41249;47.838;16.490;2022-08-23T14:59:26;99205.81;;;17.43;100.00